createdAt,value
2018-04-02T00:00:41.659Z,24.1
2018-04-02T00:01:30.213Z,24
2018-04-02T00:02:21.023Z,23.8
2018-04-02T00:03:12.069Z,23.7
2018-04-02T00:04:01.944Z,23.6
2018-04-02T00:04:52.474Z,23.4
2018-04-02T00:05:40.949Z,23.3
2018-04-02T00:06:32.029Z,23
2018-04-02T00:07:20.841Z,22.7
2018-04-02T00:08:12.446Z,22.4
2018-04-02T00:09:02.053Z,22.3
2018-04-02T00:09:52.851Z,22.1
2018-04-02T00:10:42.994Z,22
2018-04-02T00:11:32.779Z,21.8
2018-04-02T00:12:22.688Z,21.7
2018-04-02T00:13:13.068Z,21.6
2018-04-02T00:14:02.386Z,21.4
2018-04-02T00:14:52.227Z,21.4
2018-04-02T00:15:43.035Z,22.3
2018-04-02T00:16:33.371Z,23.1
2018-04-02T00:17:23.189Z,23.4
2018-04-02T00:18:13.064Z,23.8
2018-04-02T00:19:02.251Z,24.1
2018-04-02T00:19:52.918Z,24.3
2018-04-02T00:20:42.988Z,24.5
2018-04-02T00:21:32.716Z,24.8
2018-04-02T00:22:23.715Z,24.9
2018-04-02T00:23:13.828Z,25.1
2018-04-02T00:24:03.254Z,25.3
2018-04-02T00:24:52.886Z,25.5
2018-04-02T00:25:43.852Z,25.6
2018-04-02T00:26:33.187Z,25.8
2018-04-02T00:27:23.352Z,25.9
2018-04-02T00:28:13.806Z,26
2018-04-02T00:29:03.717Z,26.1
2018-04-02T00:29:53.911Z,26.3
2018-04-02T00:30:43.262Z,26.4
2018-04-02T00:31:34.566Z,26.4
2018-04-02T00:32:23.640Z,26.1
2018-04-02T00:33:13.988Z,25.4
2018-04-02T00:34:04.530Z,25
2018-04-02T00:34:53.920Z,24.7
2018-04-02T00:35:45.197Z,24.4
2018-04-02T00:36:34.960Z,24.3
2018-04-02T00:37:25.592Z,24.1
2018-04-02T00:38:15.650Z,23.9
2018-04-02T00:39:06.061Z,23.8
2018-04-02T00:39:55.068Z,23.6
2018-04-02T00:40:44.987Z,23.5
2018-04-02T00:41:34.880Z,23.4
2018-04-02T00:42:25.268Z,23.3
2018-04-02T00:43:15.576Z,22.9
2018-04-02T00:44:05.652Z,22.7
2018-04-02T00:44:55.684Z,22.4
2018-04-02T00:45:45.836Z,22.3
2018-04-02T00:46:36.131Z,22.1
2018-04-02T00:47:26.646Z,22
2018-04-02T00:48:16.418Z,21.9
2018-04-02T00:49:06.487Z,21.8
2018-04-02T00:49:56.196Z,21.6
2018-04-02T00:50:46.921Z,21.5
2018-04-02T00:51:36.149Z,21.4
2018-04-02T00:52:26.391Z,21.9
2018-04-02T00:53:17.065Z,22.8
2018-04-02T00:54:07.122Z,23.3
2018-04-02T00:54:57.483Z,23.6
2018-04-02T00:55:46.680Z,23.9
2018-04-02T00:56:37.253Z,24.1
2018-04-02T00:57:25.107Z,24.4
2018-04-02T00:58:16.322Z,24.6
2018-04-02T00:59:06.665Z,24.8
2018-04-02T00:59:56.468Z,25.1
2018-04-02T01:00:46.001Z,25.3
2018-04-02T01:01:36.001Z,25.4
2018-04-02T01:02:25.794Z,25.5
2018-04-02T01:03:16.673Z,25.7
2018-04-02T01:04:05.528Z,25.8
2018-04-02T01:04:56.030Z,25.9
2018-04-02T01:05:46.523Z,26.1
2018-04-02T01:06:37.278Z,26.3
2018-04-02T01:07:26.111Z,26.4
2018-04-02T01:08:17.096Z,26.5
2018-04-02T01:09:06.627Z,26.4
2018-04-02T01:09:57.322Z,25.6
2018-04-02T01:10:47.387Z,25.1
2018-04-02T01:11:36.952Z,24.8
2018-04-02T01:12:27.864Z,24.5
2018-04-02T01:13:17.230Z,24.3
2018-04-02T01:14:07.047Z,24.1
2018-04-02T01:14:57.001Z,24
2018-04-02T01:15:47.807Z,23.9
2018-04-02T01:16:37.709Z,23.8
2018-04-02T01:17:27.084Z,23.6
2018-04-02T01:18:17.522Z,23.4
2018-04-02T01:19:07.904Z,23.3
2018-04-02T01:19:57.747Z,23.1
2018-04-02T01:20:47.169Z,22.9
2018-04-02T01:21:37.484Z,22.6
2018-04-02T01:22:28.355Z,22.4
2018-04-02T01:23:17.437Z,22.3
2018-04-02T01:24:06.769Z,22.1
2018-04-02T01:24:57.969Z,22
2018-04-02T01:25:48.676Z,21.9
2018-04-02T01:26:37.636Z,21.8
2018-04-02T01:27:27.452Z,21.6
2018-04-02T01:28:16.906Z,21.6
2018-04-02T01:29:07.964Z,21.4
2018-04-02T01:29:58.282Z,22.1
2018-04-02T01:30:48.434Z,22.9
2018-04-02T01:31:37.801Z,23.3
2018-04-02T01:32:28.613Z,23.6
2018-04-02T01:33:17.699Z,23.9
2018-04-02T01:34:07.429Z,24.2
2018-04-02T01:34:59.464Z,24.4
2018-04-02T01:35:49.042Z,24.6
2018-04-02T01:36:39.121Z,24.8
2018-04-02T01:37:28.448Z,24.9
2018-04-02T01:38:18.065Z,25.1
2018-04-02T01:39:08.843Z,25.3
2018-04-02T01:39:59.278Z,25.4
2018-04-02T01:40:49.335Z,25.6
2018-04-02T01:41:39.575Z,25.8
2018-04-02T01:42:29.820Z,25.9
2018-04-02T01:43:19.628Z,26.1
2018-04-02T01:44:09.233Z,26.3
2018-04-02T01:44:58.892Z,26.4
2018-04-02T01:45:49.818Z,26.4
2018-04-02T01:46:39.615Z,26.3
2018-04-02T01:47:28.883Z,25.4
2018-04-02T01:48:20.790Z,25
2018-04-02T01:49:10.820Z,24.7
2018-04-02T01:50:01.175Z,24.5
2018-04-02T01:50:51.017Z,24.3
2018-04-02T01:51:41.017Z,24.1
2018-04-02T01:52:31.326Z,23.9
2018-04-02T01:53:20.888Z,23.8
2018-04-02T01:54:10.712Z,23.6
2018-04-02T01:54:59.745Z,23.5
2018-04-02T01:55:50.553Z,23.4
2018-04-02T01:56:41.110Z,23.3
2018-04-02T01:57:29.035Z,23.1
2018-04-02T01:58:20.357Z,22.8
2018-04-02T01:59:09.489Z,22.6
2018-04-02T02:00:00.389Z,22.3
2018-04-02T02:00:49.454Z,22.2
2018-04-02T02:01:41.014Z,22
2018-04-02T02:02:30.420Z,21.9
2018-04-02T02:03:21.013Z,21.8
2018-04-02T02:04:09.914Z,21.6
2018-04-02T02:05:00.200Z,21.6
2018-04-02T02:05:49.637Z,21.4
2018-04-02T02:06:42.240Z,21.3
2018-04-02T02:07:30.521Z,21.5
2018-04-02T02:08:20.679Z,22.4
2018-04-02T02:09:10.764Z,23.1
2018-04-02T02:10:00.108Z,23.4
2018-04-02T02:10:51.841Z,23.7
2018-04-02T02:11:40.349Z,24
2018-04-02T02:12:31.040Z,24.2
2018-04-02T02:13:21.161Z,24.4
2018-04-02T02:14:10.641Z,24.7
2018-04-02T02:15:00.623Z,24.9
2018-04-02T02:15:51.423Z,25.1
2018-04-02T02:16:41.023Z,25.3
2018-04-02T02:17:30.841Z,25.4
2018-04-02T02:18:20.865Z,25.6
2018-04-02T02:19:11.661Z,25.7
2018-04-02T02:20:02.126Z,25.9
2018-04-02T02:20:52.574Z,26
2018-04-02T02:21:42.134Z,26.1
2018-04-02T02:22:32.407Z,26.3
2018-04-02T02:23:22.306Z,26.4
2018-04-02T02:24:11.383Z,26.4
2018-04-02T02:25:02.813Z,25.6
2018-04-02T02:25:52.981Z,25.1
2018-04-02T02:26:41.570Z,24.8
2018-04-02T02:27:32.555Z,24.5
2018-04-02T02:28:22.424Z,24.3
2018-04-02T02:29:11.553Z,24.1
2018-04-02T02:30:01.493Z,24
2018-04-02T02:30:52.659Z,23.9
2018-04-02T02:31:42.535Z,23.7
2018-04-02T02:32:32.261Z,23.6
2018-04-02T02:33:23.195Z,23.4
2018-04-02T02:34:12.824Z,23.4
2018-04-02T02:35:03.142Z,23
2018-04-02T02:35:52.520Z,22.8
2018-04-02T02:36:42.990Z,22.5
2018-04-02T02:37:33.629Z,22.4
2018-04-02T02:38:23.978Z,22.2
2018-04-02T02:39:12.284Z,22.1
2018-04-02T02:40:04.242Z,21.9
2018-04-02T02:40:53.297Z,21.8
2018-04-02T02:41:44.047Z,21.7
2018-04-02T02:42:33.164Z,21.6
2018-04-02T02:43:24.046Z,21.4
2018-04-02T02:44:13.807Z,21.3
2018-04-02T02:45:04.297Z,21.3
2018-04-02T02:45:53.926Z,22.3
2018-04-02T02:46:43.406Z,23
2018-04-02T02:47:35.124Z,23.4
2018-04-02T02:48:24.092Z,23.7
2018-04-02T02:49:13.937Z,23.9
2018-04-02T02:50:04.407Z,24.2
2018-04-02T02:50:55.663Z,24.4
2018-04-02T02:51:45.153Z,24.6
2018-04-02T02:52:36.120Z,24.4
2018-04-02T02:53:24.968Z,23.6
2018-04-02T02:54:15.868Z,22.5
2018-04-02T02:55:05.403Z,21.7
2018-04-02T02:55:55.701Z,20.6
2018-04-02T02:56:46.270Z,20.7
2018-04-02T02:57:36.103Z,20.8
2018-04-02T02:58:25.354Z,21.8
2018-04-02T02:59:15.958Z,22.6
2018-04-02T03:00:05.768Z,23.3
2018-04-02T03:00:56.346Z,23.6
2018-04-02T03:01:46.428Z,24
2018-04-02T03:02:35.697Z,24.3
2018-04-02T03:03:27.135Z,24.5
2018-04-02T03:04:15.714Z,24.8
2018-04-02T03:05:04.982Z,24.9
2018-04-02T03:05:54.440Z,25.2
2018-04-02T03:06:45.388Z,25.3
2018-04-02T03:07:35.214Z,25.5
2018-04-02T03:08:25.520Z,25.7
2018-04-02T03:09:15.497Z,25.8
2018-04-02T03:10:05.991Z,26
2018-04-02T03:10:53.773Z,26.1
2018-04-02T03:11:45.326Z,26.3
2018-04-02T03:12:34.514Z,26.4
2018-04-02T03:13:26.450Z,25.5
2018-04-02T03:14:15.882Z,25.1
2018-04-02T03:15:05.683Z,24.8
2018-04-02T03:15:56.527Z,24.5
2018-04-02T03:16:46.283Z,24.3
2018-04-02T03:17:36.209Z,24.1
2018-04-02T03:18:25.238Z,23.9
2018-04-02T03:19:14.905Z,23.8
2018-04-02T03:20:06.227Z,23.6
2018-04-02T03:20:56.199Z,23.5
2018-04-02T03:21:45.353Z,23.4
2018-04-02T03:22:37.025Z,23.3
2018-04-02T03:23:26.840Z,23.1
2018-04-02T03:24:17.763Z,22.8
2018-04-02T03:25:21.707Z,22.6
2018-04-02T03:25:56.130Z,22.3
2018-04-02T03:26:46.507Z,22.3
2018-04-02T03:27:36.529Z,22.1
2018-04-02T03:28:26.263Z,21.9
2018-04-02T03:29:16.599Z,21.8
2018-04-02T03:30:06.567Z,21.8
2018-04-02T03:30:56.778Z,21.6
2018-04-02T03:31:47.936Z,21.5
2018-04-02T03:32:37.354Z,21.4
2018-04-02T03:33:26.894Z,21.3
2018-04-02T03:34:16.505Z,21.7
2018-04-02T03:35:07.838Z,22.6
2018-04-02T03:35:58.101Z,23.2
2018-04-02T03:36:47.838Z,23.6
2018-04-02T03:37:37.866Z,23.9
2018-04-02T03:38:26.839Z,24.2
2018-04-02T03:39:17.701Z,24.4
2018-04-02T03:40:08.757Z,24.6
2018-04-02T03:40:57.686Z,24.8
2018-04-02T03:41:47.606Z,25
2018-04-02T03:42:37.181Z,25.2
2018-04-02T03:43:28.291Z,25.4
2018-04-02T03:44:18.375Z,25.6
2018-04-02T03:45:07.049Z,25.7
2018-04-02T03:45:57.939Z,25.9
2018-04-02T03:46:47.464Z,26
2018-04-02T03:47:37.141Z,26.2
2018-04-02T03:48:29.856Z,26.3
2018-04-02T03:49:18.973Z,26.4
2018-04-02T03:50:09.077Z,25.6
2018-04-02T03:50:59.378Z,25.1
2018-04-02T03:51:49.480Z,24.8
2018-04-02T03:52:39.812Z,24.5
2018-04-02T03:53:29.580Z,24.3
2018-04-02T03:54:20.247Z,24.1
2018-04-02T03:55:10.040Z,24
2018-04-02T03:56:00.038Z,23.8
2018-04-02T03:56:50.458Z,23.7
2018-04-02T03:57:40.793Z,23.5
2018-04-02T03:58:29.985Z,23.4
2018-04-02T03:59:18.693Z,23.3
2018-04-02T04:00:10.948Z,23.1
2018-04-02T04:00:59.837Z,22.8
2018-04-02T04:01:50.823Z,22.6
2018-04-02T04:02:39.702Z,22.4
2018-04-02T04:03:30.609Z,22.2
2018-04-02T04:04:20.638Z,22.1
2018-04-02T04:05:10.464Z,21.9
2018-04-02T04:05:59.944Z,21.8
2018-04-02T04:06:51.094Z,21.8
2018-04-02T04:07:39.512Z,21.6
2018-04-02T04:08:29.318Z,21.4
2018-04-02T04:09:18.811Z,21.4
2018-04-02T04:10:09.534Z,21.3
2018-04-02T04:11:00.184Z,22.1
2018-04-02T04:11:50.106Z,22.9
2018-04-02T04:12:40.528Z,23.4
2018-04-02T04:13:30.394Z,23.8
2018-04-02T04:14:20.659Z,24
2018-04-02T04:15:10.008Z,24.3
2018-04-02T04:16:00.099Z,24.5
2018-04-02T04:16:50.626Z,24.8
2018-04-02T04:17:40.838Z,24.9
2018-04-02T04:18:30.846Z,25.1
2018-04-02T04:19:20.596Z,25.3
2018-04-02T04:20:10.375Z,25.4
2018-04-02T04:20:59.879Z,25.6
2018-04-02T04:21:49.928Z,25.8
2018-04-02T04:22:40.539Z,25.9
2018-04-02T04:23:30.653Z,26.1
2018-04-02T04:24:20.916Z,26.3
2018-04-02T04:25:10.338Z,26.3
2018-04-02T04:26:00.126Z,25.4
2018-04-02T04:26:50.294Z,25
2018-04-02T04:27:41.970Z,24.7
2018-04-02T04:28:30.591Z,24.4
2018-04-02T04:29:20.380Z,24.2
2018-04-02T04:30:11.102Z,24.1
2018-04-02T04:31:01.250Z,23.9
2018-04-02T04:31:52.160Z,23.8
2018-04-02T04:32:41.294Z,23.6
2018-04-02T04:33:30.859Z,23.5
2018-04-02T04:34:21.354Z,23.4
2018-04-02T04:35:10.275Z,23.2
2018-04-02T04:36:01.565Z,22.9
2018-04-02T04:36:51.685Z,22.6
2018-04-02T04:37:41.070Z,22.4
2018-04-02T04:38:31.214Z,22.3
2018-04-02T04:39:21.837Z,22.1
2018-04-02T04:40:12.605Z,21.9
2018-04-02T04:41:01.802Z,21.8
2018-04-02T04:41:50.985Z,21.6
2018-04-02T04:42:42.408Z,21.6
2018-04-02T04:43:32.059Z,21.4
2018-04-02T04:44:22.019Z,21.4
2018-04-02T04:45:11.327Z,21.3
2018-04-02T04:46:02.670Z,21.7
2018-04-02T04:46:52.195Z,22.7
2018-04-02T04:47:42.311Z,23.2
2018-04-02T04:48:32.332Z,23.5
2018-04-02T04:49:22.532Z,23.9
2018-04-02T04:50:11.963Z,24.1
2018-04-02T04:51:02.990Z,24.4
2018-04-02T04:51:53.238Z,24.6
2018-04-02T04:52:42.822Z,24.9
2018-04-02T04:53:33.686Z,25.1
2018-04-02T04:54:22.852Z,25.3
2018-04-02T04:55:13.134Z,25.4
2018-04-02T04:56:02.979Z,25.6
2018-04-02T04:56:53.239Z,25.8
2018-04-02T04:57:43.298Z,25.9
2018-04-02T04:58:33.325Z,26.1
2018-04-02T04:59:23.287Z,26.2
2018-04-02T05:00:13.891Z,25.8
2018-04-02T05:01:03.654Z,25.1
2018-04-02T05:01:53.128Z,24.8
2018-04-02T05:02:44.034Z,24.5
2018-04-02T05:03:33.834Z,24.3
2018-04-02T05:04:23.996Z,24.1
2018-04-02T05:05:14.440Z,23.9
2018-04-02T05:06:03.853Z,23.8
2018-04-02T05:06:53.892Z,23.7
2018-04-02T05:07:44.146Z,23.6
2018-04-02T05:08:34.001Z,23.4
2018-04-02T05:09:25.412Z,23.3
2018-04-02T05:10:14.117Z,23.1
2018-04-02T05:11:03.678Z,23
2018-04-02T05:11:54.218Z,22.9
2018-04-02T05:12:45.043Z,22.8
2018-04-02T05:13:34.043Z,22.7
2018-04-02T05:14:24.729Z,22.6
2018-04-02T05:15:13.681Z,22.4
2018-04-02T05:16:05.190Z,22.3
2018-04-02T05:16:54.743Z,22.2
2018-04-02T05:17:43.954Z,22.1
2018-04-02T05:18:34.814Z,22
2018-04-02T05:19:25.190Z,21.9
2018-04-02T05:20:15.001Z,21.8
2018-04-02T05:21:05.396Z,21.7
2018-04-02T05:21:55.443Z,21.6
2018-04-02T05:22:44.689Z,21.4
2018-04-02T05:23:34.764Z,21.3
2018-04-02T05:24:25.547Z,21.3
2018-04-02T05:26:04.621Z,21.3
2018-04-02T05:26:55.821Z,21.9
2018-04-02T05:27:47.250Z,22.7
2018-04-02T05:28:36.776Z,23.2
2018-04-02T05:29:27.092Z,23.4
2018-04-02T05:30:17.444Z,23.8
2018-04-02T05:31:06.897Z,24.1
2018-04-02T05:31:56.744Z,24.3
2018-04-02T05:32:47.086Z,24.5
2018-04-02T05:33:36.600Z,24.7
2018-04-02T05:34:27.258Z,24.9
2018-04-02T05:35:17.583Z,25.1
2018-04-02T05:36:07.342Z,25.2
2018-04-02T05:36:57.421Z,25.4
2018-04-02T05:37:46.284Z,25.6
2018-04-02T05:38:37.804Z,25.8
2018-04-02T05:39:26.797Z,25.9
2018-04-02T05:40:16.264Z,26.1
2018-04-02T05:41:05.744Z,26.3
2018-04-02T05:41:55.961Z,25.4
2018-04-02T05:42:46.668Z,24.9
2018-04-02T05:43:36.908Z,24.6
2018-04-02T05:44:28.019Z,24.3
2018-04-02T05:45:16.774Z,24.1
2018-04-02T05:46:07.129Z,24
2018-04-02T05:46:56.869Z,23.8
2018-04-02T05:47:46.243Z,23.7
2018-04-02T05:48:36.497Z,23.6
2018-04-02T05:49:27.215Z,23.4
2018-04-02T05:50:16.900Z,23.3
2018-04-02T05:51:06.131Z,23.3
2018-04-02T05:51:58.404Z,23.1
2018-04-02T05:52:46.769Z,22.9
2018-04-02T05:53:37.535Z,22.8
2018-04-02T05:54:26.796Z,22.7
2018-04-02T05:55:17.263Z,22.6
2018-04-02T05:56:06.984Z,22.5
2018-04-02T05:56:57.616Z,22.4
2018-04-02T05:57:47.240Z,22.2
2018-04-02T05:58:37.324Z,22.1
2018-04-02T05:59:28.758Z,22
2018-04-02T06:00:17.343Z,21.9
2018-04-02T06:01:08.117Z,21.8
2018-04-02T06:01:58.532Z,21.6
2018-04-02T06:02:48.209Z,21.5
2018-04-02T06:03:38.254Z,21.4
2018-04-02T06:04:29.003Z,21.3
2018-04-02T06:05:18.576Z,21.3
2018-04-02T06:06:58.589Z,21.1
2018-04-02T06:07:48.146Z,21.2
2018-04-02T06:08:38.028Z,21.7
2018-04-02T06:09:28.208Z,22.5
2018-04-02T06:10:18.241Z,23
2018-04-02T06:11:09.103Z,23.3
2018-04-02T06:11:57.981Z,23.7
2018-04-02T06:12:48.166Z,23.9
2018-04-02T06:13:38.005Z,24.1
2018-04-02T06:14:28.752Z,24.4
2018-04-02T06:15:19.495Z,24.6
2018-04-02T06:16:08.522Z,24.8
2018-04-02T06:16:59.365Z,25
2018-04-02T06:17:48.606Z,25.2
2018-04-02T06:18:39.958Z,25.4
2018-04-02T06:19:29.075Z,25.6
2018-04-02T06:20:18.090Z,25.8
2018-04-02T06:21:08.742Z,26
2018-04-02T06:21:59.769Z,26.1
2018-04-02T06:22:48.462Z,25.9
2018-04-02T06:23:39.417Z,25.1
2018-04-02T06:24:30.767Z,24.7
2018-04-02T06:25:20.047Z,24.4
2018-04-02T06:26:09.925Z,24.3
2018-04-02T06:26:59.837Z,24.1
2018-04-02T06:27:50.112Z,23.9
2018-04-02T06:28:39.773Z,23.8
2018-04-02T06:29:29.550Z,23.6
2018-04-02T06:30:19.791Z,23.4
2018-04-02T06:31:10.952Z,23.3
2018-04-02T06:32:00.407Z,23.1
2018-04-02T06:32:48.995Z,23
2018-04-02T06:33:40.020Z,22.9
2018-04-02T06:34:30.480Z,22.8
2018-04-02T06:35:20.280Z,22.6
2018-04-02T06:36:10.209Z,22.6
2018-04-02T06:37:00.563Z,22.4
2018-04-02T06:37:51.131Z,22.3
2018-04-02T06:38:40.203Z,22.2
2018-04-02T06:39:30.904Z,22.1
2018-04-02T06:40:20.705Z,21.9
2018-04-02T06:41:10.002Z,21.9
2018-04-02T06:42:01.622Z,21.8
2018-04-02T06:42:50.150Z,21.7
2018-04-02T06:43:40.616Z,21.6
2018-04-02T06:44:30.933Z,21.4
2018-04-02T06:45:20.789Z,21.3
2018-04-02T06:46:11.147Z,21.3
2018-04-02T06:47:50.981Z,21
2018-04-02T06:48:42.219Z,20.9
2018-04-02T06:49:31.298Z,20.9
2018-04-02T06:50:22.007Z,20.8
2018-04-02T06:51:11.412Z,20.6
2018-04-02T06:52:01.766Z,20.5
2018-04-02T06:52:51.872Z,20.4
2018-04-02T06:53:41.371Z,20.4
2018-04-02T06:54:32.216Z,20.3
2018-04-02T06:55:22.256Z,20.2
2018-04-02T06:56:11.560Z,20.1
2018-04-02T06:57:01.943Z,20.1
2018-04-02T06:57:52.470Z,19.9
2018-04-02T06:58:42.035Z,19.9
2018-04-02T06:59:32.338Z,19.8
2018-04-02T07:00:21.876Z,19.7
2018-04-02T07:01:12.491Z,19.6
2018-04-02T07:02:02.582Z,19.6
2018-04-02T07:02:52.297Z,19.4
2018-04-02T07:03:41.785Z,19.4
2018-04-02T07:04:32.794Z,19.3
2018-04-02T07:05:22.972Z,19.2
2018-04-02T07:06:12.577Z,19.2
2018-04-02T07:07:02.265Z,19.1
2018-04-02T07:07:52.658Z,19.1
2018-04-02T07:08:42.598Z,19
2018-04-02T07:09:32.318Z,18.9
2018-04-02T07:10:23.333Z,18.9
2018-04-02T07:11:12.177Z,18.8
2018-04-02T07:12:52.877Z,18.6
2018-04-02T07:13:42.514Z,18.6
2018-04-02T07:14:33.357Z,18.4
2018-04-02T07:15:24.028Z,18.4
2018-04-02T07:16:12.702Z,18.4
2018-04-02T07:17:02.490Z,18.3
2018-04-02T07:17:53.525Z,18.3
2018-04-02T07:18:43.871Z,18.2
2018-04-02T07:19:33.605Z,18.1
2018-04-02T07:20:23.577Z,18.1
2018-04-02T07:21:13.401Z,18.1
2018-04-02T07:22:02.567Z,18
2018-04-02T07:22:53.175Z,17.9
2018-04-02T07:23:44.595Z,17.9
2018-04-02T07:24:34.447Z,17.8
2018-04-02T07:25:24.159Z,17.8
2018-04-02T07:26:13.703Z,17.7
2018-04-02T07:27:04.066Z,17.7
2018-04-02T07:27:52.379Z,17.7
2018-04-02T07:28:44.496Z,17.6
2018-04-02T07:29:35.030Z,17.6
2018-04-02T07:30:23.141Z,17.5
2018-04-02T07:31:14.073Z,17.4
2018-04-02T07:32:04.622Z,17.4
2018-04-02T07:32:54.671Z,17.4
2018-04-02T07:33:44.026Z,17.4
2018-04-02T07:34:33.713Z,17.3
2018-04-02T07:35:24.013Z,17.3
2018-04-02T07:36:14.974Z,17.3
2018-04-02T07:37:05.031Z,17.2
2018-04-02T07:37:54.564Z,17.1
2018-04-02T07:38:45.471Z,17.1
2018-04-02T07:39:36.049Z,17.1
2018-04-02T07:41:14.391Z,16.9
2018-04-02T07:42:05.314Z,16.9
2018-04-02T07:42:55.178Z,16.8
2018-04-02T07:43:45.464Z,16.8
2018-04-02T07:44:35.388Z,16.8
2018-04-02T07:45:26.308Z,16.7
2018-04-02T07:46:15.575Z,16.6
2018-04-02T07:47:05.817Z,16.6
2018-04-02T07:47:54.649Z,16.6
2018-04-02T07:48:46.044Z,16.5
2018-04-02T07:49:35.673Z,16.5
2018-04-02T07:50:26.096Z,16.5
2018-04-02T07:51:15.714Z,16.4
2018-04-02T07:52:05.358Z,16.4
2018-04-02T07:52:55.628Z,16.4
2018-04-02T07:53:45.470Z,16.3
2018-04-02T07:54:36.243Z,16.3
2018-04-02T07:55:25.817Z,16.3
2018-04-02T07:56:16.006Z,16.3
2018-04-02T07:57:07.400Z,16.3
2018-04-02T07:57:56.755Z,16.2
2018-04-02T07:58:46.060Z,16.1
2018-04-02T07:59:36.244Z,16.1
2018-04-02T08:00:26.644Z,16.1
2018-04-02T08:01:16.754Z,16.1
2018-04-02T08:02:06.500Z,16.1
2018-04-02T08:02:57.475Z,16
2018-04-02T08:03:46.694Z,15.9
2018-04-02T08:04:36.407Z,15.9
2018-04-02T08:05:27.305Z,15.9
2018-04-02T08:06:16.664Z,15.9
2018-04-02T08:07:06.989Z,15.8
2018-04-02T08:07:57.569Z,15.8
2018-04-02T08:08:47.328Z,15.8
2018-04-02T08:09:36.923Z,15.8
2018-04-02T08:10:26.871Z,15.8
2018-04-02T08:11:18.724Z,15.7
2018-04-02T08:12:07.764Z,15.7
2018-04-02T08:12:56.604Z,15.6
2018-04-02T08:13:47.456Z,15.6
2018-04-02T08:14:37.669Z,15.6
2018-04-02T08:15:27.658Z,15.6
2018-04-02T08:16:17.722Z,15.5
2018-04-02T08:17:06.782Z,15.5
2018-04-02T08:17:58.385Z,15.5
2018-04-02T08:18:47.391Z,15.4
2018-04-02T08:19:38.596Z,15.4
2018-04-02T08:20:28.396Z,15.4
2018-04-02T08:21:18.289Z,15.4
2018-04-02T08:22:08.711Z,15.4
2018-04-02T08:22:58.964Z,15.4
2018-04-02T08:23:47.749Z,15.3
2018-04-02T08:24:37.504Z,15.3
2018-04-02T08:25:28.444Z,15.3
2018-04-02T08:26:19.166Z,15.3
2018-04-02T08:27:08.602Z,15.3
2018-04-02T08:27:58.582Z,15.3
2018-04-02T08:28:48.295Z,15.2
2018-04-02T08:29:38.765Z,15.2
2018-04-02T08:30:27.885Z,15.1
2018-04-02T08:31:18.709Z,15.1
2018-04-02T08:32:09.126Z,15.1
2018-04-02T08:32:59.377Z,15.1
2018-04-02T08:33:49.690Z,15.1
2018-04-02T08:34:37.964Z,15.1
2018-04-02T08:35:28.829Z,15.1
2018-04-02T08:36:18.893Z,15
2018-04-02T08:37:09.564Z,15
2018-04-02T08:37:59.833Z,15
2018-04-02T08:38:50.217Z,15
2018-04-02T08:39:39.613Z,15
2018-04-02T08:40:29.784Z,14.9
2018-04-02T08:41:19.166Z,14.9
2018-04-02T08:42:09.819Z,14.9
2018-04-02T08:42:59.366Z,14.9
2018-04-02T08:43:48.826Z,14.9
2018-04-02T08:44:38.463Z,14.9
2018-04-02T08:45:29.214Z,14.9
2018-04-02T08:46:20.324Z,14.8
2018-04-02T08:47:09.835Z,14.9
2018-04-02T08:47:59.419Z,14.8
2018-04-02T08:48:49.989Z,14.8
2018-04-02T08:49:39.545Z,14.8
2018-04-02T08:50:29.524Z,14.8
2018-04-02T08:51:20.024Z,14.8
2018-04-02T08:52:09.033Z,14.7
2018-04-02T08:53:01.446Z,14.8
2018-04-02T08:53:50.545Z,14.7
2018-04-02T08:54:39.960Z,14.7
2018-04-02T08:55:30.270Z,14.7
2018-04-02T08:56:20.853Z,14.6
2018-04-02T08:57:11.845Z,14.7
2018-04-02T08:58:00.845Z,14.6
2018-04-02T08:58:50.130Z,14.6
2018-04-02T08:59:41.098Z,14.6
2018-04-02T09:00:30.076Z,14.6
2018-04-02T09:01:20.969Z,14.6
2018-04-02T09:02:10.653Z,14.6
2018-04-02T09:03:00.061Z,14.6
2018-04-02T09:03:50.881Z,14.6
2018-04-02T09:04:40.943Z,14.6
2018-04-02T09:05:31.638Z,14.5
2018-04-02T09:06:21.500Z,14.5
2018-04-02T09:07:11.418Z,14.5
2018-04-02T09:08:01.566Z,14.5
2018-04-02T09:08:51.582Z,14.5
2018-04-02T09:09:41.298Z,14.5
2018-04-02T09:10:31.572Z,14.4
2018-04-02T09:11:21.532Z,14.4
2018-04-02T09:12:11.820Z,14.4
2018-04-02T09:13:01.774Z,14.4
2018-04-02T09:13:52.035Z,14.4
2018-04-02T09:14:40.015Z,14.4
2018-04-02T09:15:32.519Z,14.4
2018-04-02T09:16:22.329Z,14.4
2018-04-02T09:17:11.981Z,14.4
2018-04-02T09:18:02.220Z,14.4
2018-04-02T09:18:52.751Z,14.4
2018-04-02T09:19:41.962Z,14.3
2018-04-02T09:20:31.999Z,14.4
2018-04-02T09:21:22.631Z,14.4
2018-04-02T09:22:11.770Z,14.3
2018-04-02T09:23:02.544Z,14.3
2018-04-02T09:23:53.129Z,14.3
2018-04-02T09:24:42.511Z,14.3
2018-04-02T09:25:32.200Z,14.3
2018-04-02T09:26:24.062Z,14.3
2018-04-02T09:27:12.301Z,14.3
2018-04-02T09:28:01.223Z,14.3
2018-04-02T09:28:51.051Z,14.3
2018-04-02T09:29:42.904Z,14.3
2018-04-02T09:30:32.931Z,14.3
2018-04-02T09:31:22.841Z,14.3
2018-04-02T09:32:12.676Z,14.2
2018-04-02T09:33:03.643Z,14.3
2018-04-02T09:33:53.466Z,14.3
2018-04-02T09:34:44.155Z,14.2
2018-04-02T09:35:33.792Z,14.2
2018-04-02T09:36:23.350Z,14.2
2018-04-02T09:37:13.560Z,14.2
2018-04-02T09:38:03.770Z,14.2
2018-04-02T09:38:54.424Z,14.2
2018-04-02T09:39:44.196Z,14.2
2018-04-02T09:40:34.144Z,14.2
2018-04-02T09:41:23.639Z,14.1
2018-04-02T09:42:14.547Z,14.1
2018-04-02T09:43:05.510Z,14.1
2018-04-02T09:43:55.580Z,14.1
2018-04-02T09:44:45.362Z,14.1
2018-04-02T09:45:35.207Z,14.1
2018-04-02T09:46:25.167Z,14.1
2018-04-02T09:47:15.789Z,14.1
2018-04-02T09:48:06.176Z,14.1
2018-04-02T09:48:56.214Z,14.1
2018-04-02T09:49:45.995Z,14.1
2018-04-02T09:50:36.022Z,14.1
2018-04-02T09:51:26.115Z,14.1
2018-04-02T09:52:16.432Z,14.1
2018-04-02T09:53:06.227Z,14.1
2018-04-02T09:53:56.296Z,14.1
2018-04-02T09:54:46.629Z,14.1
2018-04-02T09:55:36.131Z,14.1
2018-04-02T09:56:26.479Z,14.1
2018-04-02T09:57:16.819Z,14.1
2018-04-02T09:58:06.300Z,14.1
2018-04-02T09:58:56.349Z,14.1
2018-04-02T09:59:46.178Z,14.1
2018-04-02T10:00:37.107Z,14.1
2018-04-02T10:01:27.122Z,14.1
2018-04-02T10:02:16.906Z,14
2018-04-02T10:03:06.379Z,14.1
2018-04-02T10:03:56.717Z,14.1
2018-04-02T10:04:50.160Z,14
2018-04-02T10:05:35.986Z,14
2018-04-02T10:06:28.067Z,14
2018-04-02T10:07:17.318Z,14
2018-04-02T10:08:07.076Z,14
2018-04-02T10:08:57.360Z,14
2018-04-02T10:09:46.912Z,14
2018-04-02T10:10:37.551Z,14
2018-04-02T10:11:27.819Z,14
2018-04-02T10:12:17.097Z,14
2018-04-02T10:13:07.405Z,14
2018-04-02T10:13:57.801Z,13.9
2018-04-02T10:14:47.559Z,13.9
2018-04-02T10:15:38.113Z,13.9
2018-04-02T10:16:27.955Z,13.9
2018-04-02T10:17:17.413Z,13.9
2018-04-02T10:18:07.793Z,13.9
2018-04-02T10:18:58.101Z,13.9
2018-04-02T10:19:47.050Z,13.9
2018-04-02T10:20:36.836Z,13.9
2018-04-02T10:21:26.868Z,13.9
2018-04-02T10:22:16.513Z,13.9
2018-04-02T10:23:06.368Z,13.9
2018-04-02T10:23:57.836Z,13.9
2018-04-02T10:24:47.013Z,13.9
2018-04-02T10:25:36.723Z,13.9
2018-04-02T10:26:26.998Z,13.9
2018-04-02T10:27:17.081Z,13.9
2018-04-02T10:28:07.810Z,13.9
2018-04-02T10:28:57.623Z,13.9
2018-04-02T10:29:47.616Z,13.9
2018-04-02T10:30:36.072Z,13.9
2018-04-02T10:31:27.758Z,13.9
2018-04-02T10:32:17.302Z,13.9
2018-04-02T10:33:08.488Z,13.9
2018-04-02T10:33:58.401Z,13.9
2018-04-02T10:34:48.536Z,13.9
2018-04-02T10:35:37.202Z,13.9
2018-04-02T10:36:26.436Z,13.9
2018-04-02T10:37:17.090Z,13.9
2018-04-02T10:38:07.022Z,13.9
2018-04-02T10:38:57.972Z,13.9
2018-04-02T10:39:47.806Z,13.8
2018-04-02T10:40:37.924Z,13.9
2018-04-02T10:41:28.332Z,13.8
2018-04-02T10:42:18.202Z,13.8
2018-04-02T10:43:08.296Z,13.8
2018-04-02T10:43:57.956Z,13.8
2018-04-02T10:44:48.701Z,13.8
2018-04-02T10:45:37.488Z,13.8
2018-04-02T10:46:28.798Z,13.8
2018-04-02T10:47:18.208Z,13.8
2018-04-02T10:48:08.376Z,13.8
2018-04-02T10:48:58.775Z,13.8
2018-04-02T10:49:47.795Z,13.8
2018-04-02T10:50:38.434Z,13.8
2018-04-02T10:51:29.629Z,13.8
2018-04-02T10:52:19.414Z,13.8
2018-04-02T10:53:09.035Z,13.8
2018-04-02T10:53:59.336Z,13.8
2018-04-02T10:54:49.941Z,13.8
2018-04-02T10:55:38.402Z,13.8
2018-04-02T10:56:29.845Z,13.8
2018-04-02T10:57:18.938Z,13.8
2018-04-02T10:58:08.183Z,13.8
2018-04-02T10:58:59.728Z,13.8
2018-04-02T10:59:51.151Z,13.8
2018-04-02T11:00:38.460Z,13.8
2018-04-02T11:01:30.044Z,13.8
2018-04-02T11:02:19.910Z,13.8
2018-04-02T11:03:10.070Z,13.8
2018-04-02T11:04:00.328Z,13.8
2018-04-02T11:04:50.089Z,13.8
2018-04-02T11:05:40.798Z,13.8
2018-04-02T11:06:30.035Z,13.8
2018-04-02T11:07:18.987Z,13.8
2018-04-02T11:08:10.014Z,13.8
2018-04-02T11:08:59.722Z,13.8
2018-04-02T11:09:49.168Z,13.8
2018-04-02T11:10:40.619Z,13.8
2018-04-02T11:11:31.052Z,13.8
2018-04-02T11:12:19.478Z,13.8
2018-04-02T11:13:10.210Z,13.8